Kurgan-Tyube, Tajikistan

5:38 PM TJT on July 28, 2016 (GMT +0500)
Dushanbe | | Change Station

Elev 2635 ft 38.55 °N, 68.78 °E | Updated 8 minutes ago

Haze
Haze
91 °F
Feels Like 89 °F
N
0
Wind Variable Wind from North

Today
High -- | Low -- °F
--% Chance of Precip.
Yesterday
High -- | Low -- °F
Precip. -- in
Pressure 29.74 in
Visibility 3.1 miles
Clouds Few 4000 ft
Heat Index 89 °F
Dew Point 55 °F
Humidity 29%
Rainfall 0.00 in
Snow Depth Not available.
5:25 AM 7:37 PM
Waning Crescent, 32% visible
METAR UTDD 281230Z 00000MPS 5000 HZ FEW040CB 33/13 Q1007 R09/CLRD// NOSIG RMK QFE687/0917
Pressure 29.74 in
Visibility 3.1 miles
Clouds Few 4000 ft
Heat Index 89 °F
Dew Point 55 °F
Humidity 29%
Rainfall 0.00 in
Snow Depth Not available.
5:25 AM 7:37 PM
Waning Crescent, 32% visible
METAR UTDD 281230Z 00000MPS 5000 HZ FEW040CB 33/13 Q1007 R09/CLRD// NOSIG RMK QFE687/0917

10-Day Weather Forecast

×

Almanac

Astronomy

Jul. 28, 2016 Rise Set
Actual Time
Civil Twilight
Nautical Twilight
Astronomical Twilight
Moon
Length of Visible Light
Length of Day
Tomorrow will be .
, % of the Moon is Illuminated

Today's Extremes

Country Highs Country Lows

Community

WunderPhotos

Upload Photos

1,928,099 photos uploaded!

WunderBlog® & News

Nearby

Air Quality

  Air Quality AQ Index Pollutant
Not available.

Snow Depth

Station Depth Elevation

Earthquake Activity

City Distance Mag. Time & Date
Minimum magnitude displayed is 2.5.

Coastal Water Temperatures

Place Temperature

Stations

Nearby Weather Stations

Station Location Temp. Windchill Dew Point Humidity Wind Precip. Elev Updated Type